sensor_id;sensor_type;location;lat;lon;timestamp;temperature;humidity
16728;DHT22;8482;54.396;18.590;2023-02-01T00:00:34;5.60;99.90
16728;DHT22;8482;54.396;18.590;2023-02-01T00:03:00;5.70;99.90
16728;DHT22;8482;54.396;18.590;2023-02-01T00:05:26;5.70;99.90
16728;DHT22;8482;54.396;18.590;2023-02-01T00:07:52;5.70;99.90
16728;DHT22;8482;54.396;18.590;2023-02-01T00:10:18;5.60;99.90
16728;DHT22;8482;54.396;18.590;2023-02-01T00:12:44;5.60;99.90
16728;DHT22;8482;54.396;18.590;2023-02-01T00:15:10;5.60;99.90
16728;DHT22;8482;54.396;18.590;2023-02-01T00:17:36;5.60;99.90
16728;DHT22;8482;54.396;18.590;2023-02-01T00:20:03;5.60;99.90
16728;DHT22;8482;54.396;18.590;2023-02-01T00:22:29;5.60;99.90
16728;DHT22;8482;54.396;18.590;2023-02-01T00:24:55;5.60;99.90
16728;DHT22;8482;54.396;18.590;2023-02-01T00:27:20;5.60;99.90
16728;DHT22;8482;54.396;18.590;2023-02-01T00:29:47;5.60;99.90
16728;DHT22;8482;54.396;18.590;2023-02-01T00:32:13;5.60;99.90
16728;DHT22;8482;54.396;18.590;2023-02-01T00:34:39;5.60;99.90
16728;DHT22;8482;54.396;18.590;2023-02-01T00:37:04;5.50;99.90
16728;DHT22;8482;54.396;18.590;2023-02-01T00:39:30;5.50;99.90
16728;DHT22;8482;54.396;18.590;2023-02-01T00:41:56;5.50;99.90
16728;DHT22;8482;54.396;18.590;2023-02-01T00:44:22;5.50;99.90
16728;DHT22;8482;54.396;18.590;2023-02-01T00:46:48;5.50;99.90
16728;DHT22;8482;54.396;18.590;2023-02-01T00:49:14;5.50;99.90
16728;DHT22;8482;54.396;18.590;2023-02-01T00:51:39;5.50;99.90
16728;DHT22;8482;54.396;18.590;2023-02-01T00:54:05;5.50;99.90
16728;DHT22;8482;54.396;18.590;2023-02-01T00:56:31;5.50;99.90
16728;DHT22;8482;54.396;18.590;2023-02-01T00:58:57;5.50;99.90
16728;DHT22;8482;54.396;18.590;2023-02-01T01:01:25;5.50;99.90
16728;DHT22;8482;54.396;18.590;2023-02-01T01:04:01;5.50;99.90
16728;DHT22;8482;54.396;18.590;2023-02-01T01:06:32;5.50;99.90
16728;DHT22;8482;54.396;18.590;2023-02-01T01:09:02;5.50;99.90
16728;DHT22;8482;54.396;18.590;2023-02-01T01:11:33;5.50;99.90
16728;DHT22;8482;54.396;18.590;2023-02-01T01:14:01;5.50;99.90
16728;DHT22;8482;54.396;18.590;2023-02-01T01:16:29;5.50;99.90
16728;DHT22;8482;54.396;18.590;2023-02-01T01:18:56;5.50;99.90
16728;DHT22;8482;54.396;18.590;2023-02-01T01:21:23;5.50;99.90
16728;DHT22;8482;54.396;18.590;2023-02-01T01:23:49;5.50;99.90
16728;DHT22;8482;54.396;18.590;2023-02-01T01:26:21;5.50;99.90
16728;DHT22;8482;54.396;18.590;2023-02-01T01:28:49;5.50;99.90
16728;DHT22;8482;54.396;18.590;2023-02-01T01:31:16;5.40;99.90
16728;DHT22;8482;54.396;18.590;2023-02-01T01:33:43;5.40;99.90
16728;DHT22;8482;54.396;18.590;2023-02-01T01:36:10;5.40;99.90
16728;DHT22;8482;54.396;18.590;2023-02-01T01:38:40;5.40;99.90
16728;DHT22;8482;54.396;18.590;2023-02-01T01:41:08;5.30;99.90
16728;DHT22;8482;54.396;18.590;2023-02-01T01:43:57;5.40;99.90
16728;DHT22;8482;54.396;18.590;2023-02-01T01:46:28;5.40;99.90
16728;DHT22;8482;54.396;18.590;2023-02-01T01:49:12;5.40;99.90
16728;DHT22;8482;54.396;18.590;2023-02-01T01:51:57;5.40;99.90
16728;DHT22;8482;54.396;18.590;2023-02-01T01:54:37;5.30;99.90
16728;DHT22;8482;54.396;18.590;2023-02-01T01:57:30;5.30;99.90
16728;DHT22;8482;54.396;18.590;2023-02-01T02:00:08;5.30;99.90
16728;DHT22;8482;54.396;18.590;2023-02-01T02:02:37;5.30;99.90
16728;DHT22;8482;54.396;18.590;2023-02-01T02:05:04;5.30;99.90
16728;DHT22;8482;54.396;18.590;2023-02-01T02:07:35;5.30;99.90
16728;DHT22;8482;54.396;18.590;2023-02-01T02:10:06;5.20;99.90
16728;DHT22;8482;54.396;18.590;2023-02-01T02:12:38;5.20;99.90
16728;DHT22;8482;54.396;18.590;2023-02-01T02:15:08;5.20;99.90
16728;DHT22;8482;54.396;18.590;2023-02-01T02:29:03;5.20;99.90
16728;DHT22;8482;54.396;18.590;2023-02-01T02:31:58;5.30;99.90
16728;DHT22;8482;54.396;18.590;2023-02-01T02:34:49;5.30;99.90
16728;DHT22;8482;54.396;18.590;2023-02-01T02:40:12;5.30;99.90
16728;DHT22;8482;54.396;18.590;2023-02-01T02:46:06;5.40;99.90
16728;DHT22;8482;54.396;18.590;2023-02-01T02:49:04;5.40;99.90
16728;DHT22;8482;54.396;18.590;2023-02-01T02:51:45;5.40;99.90
16728;DHT22;8482;54.396;18.590;2023-02-01T02:54:39;5.40;99.90
16728;DHT22;8482;54.396;18.590;2023-02-01T03:00:02;5.40;99.90
16728;DHT22;8482;54.396;18.590;2023-02-01T03:02:51;5.40;99.90
16728;DHT22;8482;54.396;18.590;2023-02-01T03:05:39;5.40;99.90
16728;DHT22;8482;54.396;18.590;2023-02-01T03:08:27;5.40;99.90
16728;DHT22;8482;54.396;18.590;2023-02-01T03:11:05;5.30;99.90
16728;DHT22;8482;54.396;18.590;2023-02-01T03:13:46;5.30;99.90
16728;DHT22;8482;54.396;18.590;2023-02-01T03:16:40;5.30;99.90
16728;DHT22;8482;54.396;18.590;2023-02-01T03:19:35;5.30;99.90
16728;DHT22;8482;54.396;18.590;2023-02-01T03:22:12;5.30;99.90
16728;DHT22;8482;54.396;18.590;2023-02-01T03:24:52;5.30;99.90
16728;DHT22;8482;54.396;18.590;2023-02-01T03:27:32;5.20;99.90
16728;DHT22;8482;54.396;18.590;2023-02-01T03:30:23;5.20;99.90
16728;DHT22;8482;54.396;18.590;2023-02-01T03:32:55;5.20;99.90
16728;DHT22;8482;54.396;18.590;2023-02-01T03:41:56;5.20;99.90
16728;DHT22;8482;54.396;18.590;2023-02-01T03:44:35;5.20;99.90
16728;DHT22;8482;54.396;18.590;2023-02-01T03:50:23;5.20;99.90
16728;DHT22;8482;54.396;18.590;2023-02-01T03:52:52;5.20;99.90
16728;DHT22;8482;54.396;18.590;2023-02-01T03:55:21;5.20;99.90
16728;DHT22;8482;54.396;18.590;2023-02-01T03:57:56;5.20;99.90
16728;DHT22;8482;54.396;18.590;2023-02-01T04:00:29;5.20;99.90
16728;DHT22;8482;54.396;18.590;2023-02-01T04:02:55;5.20;99.90
16728;DHT22;8482;54.396;18.590;2023-02-01T04:05:21;5.20;99.90
16728;DHT22;8482;54.396;18.590;2023-02-01T04:07:47;5.10;99.90
16728;DHT22;8482;54.396;18.590;2023-02-01T04:10:13;5.20;99.90
16728;DHT22;8482;54.396;18.590;2023-02-01T04:12:39;5.10;99.90
16728;DHT22;8482;54.396;18.590;2023-02-01T04:15:06;5.10;99.90
16728;DHT22;8482;54.396;18.590;2023-02-01T04:17:33;5.10;99.90
16728;DHT22;8482;54.396;18.590;2023-02-01T04:19:59;5.10;99.90
16728;DHT22;8482;54.396;18.590;2023-02-01T04:22:25;5.10;99.90
16728;DHT22;8482;54.396;18.590;2023-02-01T04:24:50;5.10;99.90
16728;DHT22;8482;54.396;18.590;2023-02-01T04:27:16;5.10;99.90
16728;DHT22;8482;54.396;18.590;2023-02-01T04:29:42;5.10;99.90
16728;DHT22;8482;54.396;18.590;2023-02-01T04:32:10;5.10;99.90
16728;DHT22;8482;54.396;18.590;2023-02-01T04:34:36;5.10;99.90
16728;DHT22;8482;54.396;18.590;2023-02-01T04:37:03;5.20;99.90
16728;DHT22;8482;54.396;18.590;2023-02-01T04:39:28;5.20;99.90
16728;DHT22;8482;54.396;18.590;2023-02-01T04:41:54;5.20;99.90
16728;DHT22;8482;54.396;18.590;2023-02-01T04:44:20;5.30;99.90
16728;DHT22;8482;54.396;18.590;2023-02-01T04:46:46;5.30;99.90
16728;DHT22;8482;54.396;18.590;2023-02-01T04:49:13;5.30;99.90
16728;DHT22;8482;54.396;18.590;2023-02-01T04:51:40;5.40;99.90
16728;DHT22;8482;54.396;18.590;2023-02-01T04:54:07;5.30;99.90
16728;DHT22;8482;54.396;18.590;2023-02-01T04:56:34;5.40;99.90
16728;DHT22;8482;54.396;18.590;2023-02-01T04:59:03;5.40;99.90
16728;DHT22;8482;54.396;18.590;2023-02-01T05:01:29;5.40;99.90
16728;DHT22;8482;54.396;18.590;2023-02-01T05:03:55;5.40;99.90
16728;DHT22;8482;54.396;18.590;2023-02-01T05:06:22;5.40;99.90
16728;DHT22;8482;54.396;18.590;2023-02-01T05:08:48;5.40;99.90
16728;DHT22;8482;54.396;18.590;2023-02-01T05:11:14;5.40;99.90
16728;DHT22;8482;54.396;18.590;2023-02-01T05:13:59;5.40;99.90
16728;DHT22;8482;54.396;18.590;2023-02-01T05:16:26;5.40;99.90
16728;DHT22;8482;54.396;18.590;2023-02-01T05:18:53;5.40;99.90
16728;DHT22;8482;54.396;18.590;2023-02-01T05:21:19;5.40;99.90
16728;DHT22;8482;54.396;18.590;2023-02-01T05:23:45;5.40;99.90
16728;DHT22;8482;54.396;18.590;2023-02-01T05:26:31;5.40;99.90
16728;DHT22;8482;54.396;18.590;2023-02-01T05:28:57;5.40;99.90
16728;DHT22;8482;54.396;18.590;2023-02-01T05:31:23;5.40;99.90
16728;DHT22;8482;54.396;18.590;2023-02-01T05:33:49;5.40;99.90
16728;DHT22;8482;54.396;18.590;2023-02-01T05:36:15;5.30;99.90
16728;DHT22;8482;54.396;18.590;2023-02-01T05:38:41;5.40;99.90
16728;DHT22;8482;54.396;18.590;2023-02-01T05:41:07;5.30;99.90
16728;DHT22;8482;54.396;18.590;2023-02-01T05:43:33;5.30;99.90
16728;DHT22;8482;54.396;18.590;2023-02-01T05:46:00;5.30;99.90
16728;DHT22;8482;54.396;18.590;2023-02-01T05:48:26;5.20;99.90
16728;DHT22;8482;54.396;18.590;2023-02-01T05:50:52;5.20;99.90
16728;DHT22;8482;54.396;18.590;2023-02-01T05:53:18;5.20;99.90
16728;DHT22;8482;54.396;18.590;2023-02-01T05:55:43;5.20;99.90
16728;DHT22;8482;54.396;18.590;2023-02-01T05:58:09;5.20;99.90
16728;DHT22;8482;54.396;18.590;2023-02-01T06:00:35;5.20;99.90
16728;DHT22;8482;54.396;18.590;2023-02-01T06:03:01;5.20;99.90
16728;DHT22;8482;54.396;18.590;2023-02-01T06:05:27;5.20;99.90
16728;DHT22;8482;54.396;18.590;2023-02-01T06:07:53;5.20;99.90
16728;DHT22;8482;54.396;18.590;2023-02-01T06:10:19;5.20;99.90
16728;DHT22;8482;54.396;18.590;2023-02-01T06:12:45;5.20;99.90
16728;DHT22;8482;54.396;18.590;2023-02-01T06:15:13;5.20;99.90
16728;DHT22;8482;54.396;18.590;2023-02-01T06:17:42;5.30;99.90
16728;DHT22;8482;54.396;18.590;2023-02-01T06:20:10;5.30;99.90
16728;DHT22;8482;54.396;18.590;2023-02-01T06:22:37;5.30;99.90
16728;DHT22;8482;54.396;18.590;2023-02-01T06:25:05;5.40;99.90
16728;DHT22;8482;54.396;18.590;2023-02-01T06:27:33;5.40;99.90
16728;DHT22;8482;54.396;18.590;2023-02-01T06:29:59;5.40;99.90
16728;DHT22;8482;54.396;18.590;2023-02-01T06:32:25;5.50;99.90
16728;DHT22;8482;54.396;18.590;2023-02-01T06:34:51;5.50;99.90
16728;DHT22;8482;54.396;18.590;2023-02-01T06:37:21;5.60;99.90
16728;DHT22;8482;54.396;18.590;2023-02-01T06:39:48;5.60;99.90
16728;DHT22;8482;54.396;18.590;2023-02-01T06:42:14;5.60;99.90
16728;DHT22;8482;54.396;18.590;2023-02-01T06:44:40;5.60;99.90
16728;DHT22;8482;54.396;18.590;2023-02-01T06:47:06;5.70;99.90
16728;DHT22;8482;54.396;18.590;2023-02-01T06:49:32;5.70;99.90
16728;DHT22;8482;54.396;18.590;2023-02-01T06:51:58;5.70;99.90
16728;DHT22;8482;54.396;18.590;2023-02-01T06:54:27;5.70;99.90
16728;DHT22;8482;54.396;18.590;2023-02-01T06:56:53;5.70;99.90
16728;DHT22;8482;54.396;18.590;2023-02-01T06:59:19;5.70;99.90
16728;DHT22;8482;54.396;18.590;2023-02-01T07:01:45;5.70;99.90
16728;DHT22;8482;54.396;18.590;2023-02-01T07:04:11;5.70;99.90
16728;DHT22;8482;54.396;18.590;2023-02-01T07:06:38;5.80;99.90
16728;DHT22;8482;54.396;18.590;2023-02-01T07:09:05;5.70;99.90
16728;DHT22;8482;54.396;18.590;2023-02-01T07:11:31;5.80;99.90
16728;DHT22;8482;54.396;18.590;2023-02-01T07:13:57;5.80;99.90
16728;DHT22;8482;54.396;18.590;2023-02-01T07:16:23;5.80;99.90
16728;DHT22;8482;54.396;18.590;2023-02-01T07:18:51;5.80;99.90
16728;DHT22;8482;54.396;18.590;2023-02-01T07:21:18;5.80;99.90
16728;DHT22;8482;54.396;18.590;2023-02-01T07:23:45;5.80;99.90
16728;DHT22;8482;54.396;18.590;2023-02-01T07:26:13;5.90;99.90
16728;DHT22;8482;54.396;18.590;2023-02-01T07:28:39;5.90;99.90
16728;DHT22;8482;54.396;18.590;2023-02-01T07:31:14;5.90;99.90
16728;DHT22;8482;54.396;18.590;2023-02-01T07:33:44;5.90;99.90
16728;DHT22;8482;54.396;18.590;2023-02-01T07:36:13;5.90;99.90
16728;DHT22;8482;54.396;18.590;2023-02-01T07:38:42;6.00;99.90
16728;DHT22;8482;54.396;18.590;2023-02-01T07:41:09;6.00;99.90
16728;DHT22;8482;54.396;18.590;2023-02-01T07:43:35;6.00;99.90
16728;DHT22;8482;54.396;18.590;2023-02-01T07:46:02;6.00;99.90
16728;DHT22;8482;54.396;18.590;2023-02-01T07:48:30;6.10;99.90
16728;DHT22;8482;54.396;18.590;2023-02-01T07:50:58;6.10;99.90
16728;DHT22;8482;54.396;18.590;2023-02-01T07:53:32;6.10;99.90
16728;DHT22;8482;54.396;18.590;2023-02-01T07:55:59;6.10;99.90
16728;DHT22;8482;54.396;18.590;2023-02-01T07:58:26;6.10;99.90
16728;DHT22;8482;54.396;18.590;2023-02-01T08:00:53;6.20;99.90
16728;DHT22;8482;54.396;18.590;2023-02-01T08:03:42;6.20;99.90
16728;DHT22;8482;54.396;18.590;2023-02-01T08:06:08;6.20;99.90
16728;DHT22;8482;54.396;18.590;2023-02-01T08:08:34;6.30;99.90
16728;DHT22;8482;54.396;18.590;2023-02-01T08:11:02;6.20;99.90
16728;DHT22;8482;54.396;18.590;2023-02-01T08:13:30;6.30;99.90
16728;DHT22;8482;54.396;18.590;2023-02-01T08:16:00;6.30;99.90
16728;DHT22;8482;54.396;18.590;2023-02-01T08:18:28;6.30;99.90
16728;DHT22;8482;54.396;18.590;2023-02-01T08:20:54;6.30;99.90
16728;DHT22;8482;54.396;18.590;2023-02-01T08:23:20;6.30;99.90
16728;DHT22;8482;54.396;18.590;2023-02-01T08:25:47;6.30;99.90
16728;DHT22;8482;54.396;18.590;2023-02-01T08:28:13;6.30;99.90
16728;DHT22;8482;54.396;18.590;2023-02-01T08:30:40;6.30;99.90
16728;DHT22;8482;54.396;18.590;2023-02-01T08:33:07;6.30;99.90
16728;DHT22;8482;54.396;18.590;2023-02-01T08:35:37;6.40;99.90
16728;DHT22;8482;54.396;18.590;2023-02-01T08:38:04;6.40;99.90
16728;DHT22;8482;54.396;18.590;2023-02-01T08:40:31;6.40;99.90
16728;DHT22;8482;54.396;18.590;2023-02-01T08:42:56;6.40;99.90
16728;DHT22;8482;54.396;18.590;2023-02-01T08:45:24;6.40;99.90
16728;DHT22;8482;54.396;18.590;2023-02-01T08:47:54;6.40;99.90
16728;DHT22;8482;54.396;18.590;2023-02-01T08:50:22;6.40;99.90
16728;DHT22;8482;54.396;18.590;2023-02-01T08:52:48;6.40;99.90
16728;DHT22;8482;54.396;18.590;2023-02-01T08:55:15;6.40;99.90
16728;DHT22;8482;54.396;18.590;2023-02-01T08:57:41;6.50;99.90
16728;DHT22;8482;54.396;18.590;2023-02-01T09:00:11;6.50;99.90
16728;DHT22;8482;54.396;18.590;2023-02-01T09:02:41;6.50;99.90
16728;DHT22;8482;54.396;18.590;2023-02-01T09:05:07;6.60;99.90
16728;DHT22;8482;54.396;18.590;2023-02-01T09:07:34;6.60;99.90
16728;DHT22;8482;54.396;18.590;2023-02-01T09:10:00;6.70;99.90
16728;DHT22;8482;54.396;18.590;2023-02-01T09:12:28;6.70;99.90
16728;DHT22;8482;54.396;18.590;2023-02-01T09:14:56;6.70;99.90
16728;DHT22;8482;54.396;18.590;2023-02-01T09:17:25;6.70;99.90
16728;DHT22;8482;54.396;18.590;2023-02-01T09:19:51;6.80;99.90
16728;DHT22;8482;54.396;18.590;2023-02-01T09:22:17;6.80;99.90
16728;DHT22;8482;54.396;18.590;2023-02-01T09:24:43;6.80;99.90
16728;DHT22;8482;54.396;18.590;2023-02-01T09:27:09;6.80;99.90
16728;DHT22;8482;54.396;18.590;2023-02-01T09:29:35;6.80;99.90
16728;DHT22;8482;54.396;18.590;2023-02-01T09:32:01;6.80;99.90
16728;DHT22;8482;54.396;18.590;2023-02-01T09:34:27;6.80;99.90
16728;DHT22;8482;54.396;18.590;2023-02-01T09:36:54;6.80;99.90
16728;DHT22;8482;54.396;18.590;2023-02-01T09:39:19;6.80;99.90
16728;DHT22;8482;54.396;18.590;2023-02-01T09:41:57;6.90;99.90
16728;DHT22;8482;54.396;18.590;2023-02-01T09:44:53;6.90;99.90
16728;DHT22;8482;54.396;18.590;2023-02-01T09:47:23;6.90;99.90
16728;DHT22;8482;54.396;18.590;2023-02-01T09:52:45;7.00;99.90
16728;DHT22;8482;54.396;18.590;2023-02-01T09:55:43;7.10;99.90
16728;DHT22;8482;54.396;18.590;2023-02-01T10:01:36;7.10;99.90
16728;DHT22;8482;54.396;18.590;2023-02-01T10:04:07;7.10;99.90
16728;DHT22;8482;54.396;18.590;2023-02-01T10:09:49;7.10;99.90
16728;DHT22;8482;54.396;18.590;2023-02-01T10:21:47;7.20;99.90
16728;DHT22;8482;54.396;18.590;2023-02-01T10:27:29;7.40;99.90
16728;DHT22;8482;54.396;18.590;2023-02-01T10:30:06;7.40;99.90
16728;DHT22;8482;54.396;18.590;2023-02-01T10:32:57;7.50;99.90
16728;DHT22;8482;54.396;18.590;2023-02-01T10:35:44;7.60;99.90
16728;DHT22;8482;54.396;18.590;2023-02-01T10:38:27;7.60;99.90
16728;DHT22;8482;54.396;18.590;2023-02-01T10:41:04;7.70;99.90
16728;DHT22;8482;54.396;18.590;2023-02-01T10:43:37;7.70;99.90
16728;DHT22;8482;54.396;18.590;2023-02-01T10:46:04;7.70;99.90
16728;DHT22;8482;54.396;18.590;2023-02-01T10:48:32;7.60;99.90
16728;DHT22;8482;54.396;18.590;2023-02-01T10:51:00;7.60;99.90
16728;DHT22;8482;54.396;18.590;2023-02-01T10:53:46;7.50;99.90
16728;DHT22;8482;54.396;18.590;2023-02-01T10:56:23;7.50;99.90
16728;DHT22;8482;54.396;18.590;2023-02-01T10:58:50;7.50;99.90
16728;DHT22;8482;54.396;18.590;2023-02-01T11:01:22;7.50;99.90
16728;DHT22;8482;54.396;18.590;2023-02-01T11:04:02;7.50;99.90
16728;DHT22;8482;54.396;18.590;2023-02-01T11:06:36;7.50;99.90
16728;DHT22;8482;54.396;18.590;2023-02-01T11:14:18;7.50;99.90
16728;DHT22;8482;54.396;18.590;2023-02-01T11:19:45;7.40;99.90
16728;DHT22;8482;54.396;18.590;2023-02-01T11:22:12;7.40;99.90
16728;DHT22;8482;54.396;18.590;2023-02-01T11:24:40;7.40;99.90
16728;DHT22;8482;54.396;18.590;2023-02-01T11:27:17;7.40;99.90
16728;DHT22;8482;54.396;18.590;2023-02-01T11:29:49;7.40;99.90
16728;DHT22;8482;54.396;18.590;2023-02-01T11:32:20;7.40;99.90
16728;DHT22;8482;54.396;18.590;2023-02-01T11:35:02;7.40;99.90
16728;DHT22;8482;54.396;18.590;2023-02-01T11:37:40;7.30;99.90
16728;DHT22;8482;54.396;18.590;2023-02-01T11:43:20;7.30;99.90
16728;DHT22;8482;54.396;18.590;2023-02-01T11:45:58;7.30;99.90
16728;DHT22;8482;54.396;18.590;2023-02-01T11:48:32;7.30;99.90
16728;DHT22;8482;54.396;18.590;2023-02-01T11:54:38;7.20;99.90
16728;DHT22;8482;54.396;18.590;2023-02-01T11:57:38;7.20;99.90
16728;DHT22;8482;54.396;18.590;2023-02-01T12:06:37;7.00;99.90
16728;DHT22;8482;54.396;18.590;2023-02-01T12:12:22;6.90;99.90
16728;DHT22;8482;54.396;18.590;2023-02-01T12:14:57;6.90;99.90
16728;DHT22;8482;54.396;18.590;2023-02-01T12:17:57;6.90;99.90
16728;DHT22;8482;54.396;18.590;2023-02-01T12:20:53;7.00;99.90
16728;DHT22;8482;54.396;18.590;2023-02-01T12:29:07;7.00;99.90
16728;DHT22;8482;54.396;18.590;2023-02-01T12:39:32;6.70;99.90
16728;DHT22;8482;54.396;18.590;2023-02-01T12:42:16;6.60;99.90
16728;DHT22;8482;54.396;18.590;2023-02-01T12:51:15;6.20;99.90
16728;DHT22;8482;54.396;18.590;2023-02-01T12:53:55;6.00;99.90
16728;DHT22;8482;54.396;18.590;2023-02-01T12:59:27;5.80;99.90
16728;DHT22;8482;54.396;18.590;2023-02-01T13:02:01;5.80;99.90
16728;DHT22;8482;54.396;18.590;2023-02-01T13:04:59;5.70;99.90
16728;DHT22;8482;54.396;18.590;2023-02-01T13:07:48;5.80;99.90
16728;DHT22;8482;54.396;18.590;2023-02-01T13:10:35;5.80;99.90
16728;DHT22;8482;54.396;18.590;2023-02-01T13:13:19;5.80;99.90
16728;DHT22;8482;54.396;18.590;2023-02-01T13:16:24;5.80;99.90
16728;DHT22;8482;54.396;18.590;2023-02-01T13:19:16;5.90;99.90
16728;DHT22;8482;54.396;18.590;2023-02-01T13:21:56;5.90;99.90
16728;DHT22;8482;54.396;18.590;2023-02-01T13:24:40;6.00;99.90
16728;DHT22;8482;54.396;18.590;2023-02-01T13:27:15;6.00;99.90
16728;DHT22;8482;54.396;18.590;2023-02-01T13:41:29;6.50;99.90
16728;DHT22;8482;54.396;18.590;2023-02-01T13:44:13;6.50;99.90
16728;DHT22;8482;54.396;18.590;2023-02-01T13:46:46;6.50;99.90
16728;DHT22;8482;54.396;18.590;2023-02-01T13:49:21;6.60;99.90
16728;DHT22;8482;54.396;18.590;2023-02-01T13:51:53;6.60;99.90
16728;DHT22;8482;54.396;18.590;2023-02-01T13:54:40;6.60;99.90
16728;DHT22;8482;54.396;18.590;2023-02-01T13:57:36;6.70;99.90
16728;DHT22;8482;54.396;18.590;2023-02-01T14:00:33;6.70;99.90
16728;DHT22;8482;54.396;18.590;2023-02-01T14:13:38;6.60;99.90
16728;DHT22;8482;54.396;18.590;2023-02-01T14:16:15;6.60;99.90
16728;DHT22;8482;54.396;18.590;2023-02-01T14:21:30;6.60;99.90
16728;DHT22;8482;54.396;18.590;2023-02-01T14:26:47;6.50;99.90
16728;DHT22;8482;54.396;18.590;2023-02-01T14:34:48;6.50;99.90
16728;DHT22;8482;54.396;18.590;2023-02-01T14:42:38;6.40;99.90
16728;DHT22;8482;54.396;18.590;2023-02-01T14:48:38;6.40;99.90
16728;DHT22;8482;54.396;18.590;2023-02-01T14:50:44;6.40;99.90
16728;DHT22;8482;54.396;18.590;2023-02-01T15:01:26;6.20;99.90
16728;DHT22;8482;54.396;18.590;2023-02-01T15:06:41;6.20;99.90
16728;DHT22;8482;54.396;18.590;2023-02-01T15:09:58;6.20;99.90
16728;DHT22;8482;54.396;18.590;2023-02-01T15:14:43;6.20;99.90
16728;DHT22;8482;54.396;18.590;2023-02-01T15:17:22;6.20;99.90
16728;DHT22;8482;54.396;18.590;2023-02-01T15:19:54;6.10;99.90
16728;DHT22;8482;54.396;18.590;2023-02-01T15:22:22;6.10;99.90
16728;DHT22;8482;54.396;18.590;2023-02-01T15:24:56;6.10;99.90
16728;DHT22;8482;54.396;18.590;2023-02-01T15:27:24;6.00;99.90
16728;DHT22;8482;54.396;18.590;2023-02-01T15:29:51;6.00;99.90
16728;DHT22;8482;54.396;18.590;2023-02-01T15:32:40;5.90;99.90
16728;DHT22;8482;54.396;18.590;2023-02-01T15:35:39;6.00;99.90
16728;DHT22;8482;54.396;18.590;2023-02-01T15:41:05;5.90;99.90
16728;DHT22;8482;54.396;18.590;2023-02-01T15:43:49;5.90;99.90
16728;DHT22;8482;54.396;18.590;2023-02-01T15:46:39;5.90;99.90
16728;DHT22;8482;54.396;18.590;2023-02-01T15:49:19;5.90;99.90
16728;DHT22;8482;54.396;18.590;2023-02-01T15:51:54;5.90;99.90
16728;DHT22;8482;54.396;18.590;2023-02-01T15:54:46;5.90;99.90
16728;DHT22;8482;54.396;18.590;2023-02-01T15:57:27;5.90;99.90
16728;DHT22;8482;54.396;18.590;2023-02-01T16:00:00;5.80;99.90
16728;DHT22;8482;54.396;18.590;2023-02-01T16:05:06;5.90;99.90
16728;DHT22;8482;54.396;18.590;2023-02-01T16:08:03;5.80;99.90
16728;DHT22;8482;54.396;18.590;2023-02-01T16:10:43;5.80;99.90
16728;DHT22;8482;54.396;18.590;2023-02-01T16:13:12;5.80;99.90
16728;DHT22;8482;54.396;18.590;2023-02-01T16:15:39;5.70;99.90
16728;DHT22;8482;54.396;18.590;2023-02-01T16:18:06;5.70;99.90
16728;DHT22;8482;54.396;18.590;2023-02-01T16:20:34;5.70;99.90
16728;DHT22;8482;54.396;18.590;2023-02-01T16:23:03;5.70;99.90
16728;DHT22;8482;54.396;18.590;2023-02-01T16:25:30;5.70;99.90
16728;DHT22;8482;54.396;18.590;2023-02-01T16:27:56;5.60;99.90
16728;DHT22;8482;54.396;18.590;2023-02-01T16:30:22;5.60;99.90
16728;DHT22;8482;54.396;18.590;2023-02-01T16:32:49;5.70;99.90
16728;DHT22;8482;54.396;18.590;2023-02-01T16:35:29;5.60;99.90
16728;DHT22;8482;54.396;18.590;2023-02-01T16:38:02;5.70;99.90
16728;DHT22;8482;54.396;18.590;2023-02-01T16:40:34;5.70;99.90
16728;DHT22;8482;54.396;18.590;2023-02-01T16:43:00;5.70;99.90
16728;DHT22;8482;54.396;18.590;2023-02-01T16:45:26;5.70;99.90
16728;DHT22;8482;54.396;18.590;2023-02-01T16:47:54;5.70;99.90
16728;DHT22;8482;54.396;18.590;2023-02-01T16:50:24;5.70;99.90
16728;DHT22;8482;54.396;18.590;2023-02-01T16:52:52;5.80;99.90
16728;DHT22;8482;54.396;18.590;2023-02-01T16:55:20;5.80;99.90
16728;DHT22;8482;54.396;18.590;2023-02-01T16:57:47;5.80;99.90
16728;DHT22;8482;54.396;18.590;2023-02-01T17:00:13;5.80;99.90
16728;DHT22;8482;54.396;18.590;2023-02-01T17:02:43;5.80;99.90
16728;DHT22;8482;54.396;18.590;2023-02-01T17:05:11;5.90;99.90
16728;DHT22;8482;54.396;18.590;2023-02-01T17:07:38;5.90;99.90
16728;DHT22;8482;54.396;18.590;2023-02-01T17:10:08;5.90;99.90
16728;DHT22;8482;54.396;18.590;2023-02-01T17:12:47;5.90;99.90
16728;DHT22;8482;54.396;18.590;2023-02-01T17:15:12;5.90;99.90
16728;DHT22;8482;54.396;18.590;2023-02-01T17:17:39;6.00;99.90
16728;DHT22;8482;54.396;18.590;2023-02-01T17:20:09;6.00;99.90
16728;DHT22;8482;54.396;18.590;2023-02-01T17:22:45;6.00;99.90
16728;DHT22;8482;54.396;18.590;2023-02-01T17:25:16;6.00;99.90
16728;DHT22;8482;54.396;18.590;2023-02-01T17:27:44;6.00;99.90
16728;DHT22;8482;54.396;18.590;2023-02-01T17:30:12;6.10;99.90
16728;DHT22;8482;54.396;18.590;2023-02-01T17:32:39;6.00;99.90
16728;DHT22;8482;54.396;18.590;2023-02-01T17:37:43;6.00;99.90
16728;DHT22;8482;54.396;18.590;2023-02-01T17:40:10;6.10;99.90
16728;DHT22;8482;54.396;18.590;2023-02-01T17:42:36;6.10;99.90
16728;DHT22;8482;54.396;18.590;2023-02-01T17:45:18;6.10;99.90
16728;DHT22;8482;54.396;18.590;2023-02-01T17:47:45;6.10;99.90
16728;DHT22;8482;54.396;18.590;2023-02-01T17:50:13;6.10;99.90
16728;DHT22;8482;54.396;18.590;2023-02-01T17:52:39;6.10;99.90
16728;DHT22;8482;54.396;18.590;2023-02-01T17:55:17;6.10;99.90
16728;DHT22;8482;54.396;18.590;2023-02-01T17:57:44;6.10;99.90
16728;DHT22;8482;54.396;18.590;2023-02-01T18:00:11;6.10;99.90
16728;DHT22;8482;54.396;18.590;2023-02-01T18:02:38;6.10;99.90
16728;DHT22;8482;54.396;18.590;2023-02-01T18:05:40;6.10;99.90
16728;DHT22;8482;54.396;18.590;2023-02-01T18:08:09;6.20;99.90
16728;DHT22;8482;54.396;18.590;2023-02-01T18:10:35;6.20;99.90
16728;DHT22;8482;54.396;18.590;2023-02-01T18:13:02;6.20;99.90
16728;DHT22;8482;54.396;18.590;2023-02-01T18:15:29;6.20;99.90
16728;DHT22;8482;54.396;18.590;2023-02-01T18:17:56;6.20;99.90
16728;DHT22;8482;54.396;18.590;2023-02-01T18:20:25;6.20;99.90
16728;DHT22;8482;54.396;18.590;2023-02-01T18:22:52;6.20;99.90
16728;DHT22;8482;54.396;18.590;2023-02-01T18:25:26;6.20;99.90
16728;DHT22;8482;54.396;18.590;2023-02-01T18:27:55;6.20;99.90
16728;DHT22;8482;54.396;18.590;2023-02-01T18:30:24;6.30;99.90
16728;DHT22;8482;54.396;18.590;2023-02-01T18:32:55;6.30;99.90
16728;DHT22;8482;54.396;18.590;2023-02-01T18:35:29;6.30;99.90
16728;DHT22;8482;54.396;18.590;2023-02-01T18:37:56;6.30;99.90
16728;DHT22;8482;54.396;18.590;2023-02-01T18:40:25;6.30;99.90
16728;DHT22;8482;54.396;18.590;2023-02-01T18:42:54;6.30;99.90
16728;DHT22;8482;54.396;18.590;2023-02-01T18:45:38;6.30;99.90
16728;DHT22;8482;54.396;18.590;2023-02-01T18:48:07;6.30;99.90
16728;DHT22;8482;54.396;18.590;2023-02-01T18:50:37;6.30;99.90
16728;DHT22;8482;54.396;18.590;2023-02-01T18:53:07;6.30;99.90
16728;DHT22;8482;54.396;18.590;2023-02-01T18:55:37;6.40;99.90